createdAt,value
2018-05-02T00:01:02.789Z,277
2018-05-02T00:02:24.645Z,276
2018-05-02T00:03:31.864Z,277
2018-05-02T00:04:39.071Z,277
2018-05-02T00:05:45.860Z,277
2018-05-02T00:06:52.915Z,277
2018-05-02T00:08:00.128Z,277
2018-05-02T00:09:07.342Z,277
2018-05-02T00:10:14.544Z,277
2018-05-02T00:11:21.745Z,277
2018-05-02T00:12:29.119Z,277
2018-05-02T00:13:36.705Z,278
2018-05-02T00:14:44.261Z,277
2018-05-02T00:15:51.652Z,277
2018-05-02T00:16:58.862Z,277
2018-05-02T00:18:06.390Z,277
2018-05-02T00:19:13.348Z,278
2018-05-02T00:20:20.560Z,278
2018-05-02T00:21:27.758Z,279
2018-05-02T00:22:34.692Z,280
2018-05-02T00:23:41.892Z,281
2018-05-02T00:24:49.228Z,281
2018-05-02T00:25:56.530Z,281
2018-05-02T00:27:03.617Z,280
2018-05-02T00:28:10.972Z,280
2018-05-02T00:29:18.173Z,280
2018-05-02T00:30:25.374Z,280
2018-05-02T00:31:32.579Z,279
2018-05-02T00:32:39.861Z,280
2018-05-02T00:33:47.218Z,280
2018-05-02T00:34:54.165Z,279
2018-05-02T00:36:01.447Z,279
2018-05-02T00:37:08.868Z,280
2018-05-02T00:38:16.019Z,279
2018-05-02T00:39:23.094Z,279
2018-05-02T00:40:30.295Z,279
2018-05-02T00:41:37.494Z,279
2018-05-02T00:42:44.612Z,279
2018-05-02T00:43:51.671Z,279
2018-05-02T00:44:59.064Z,278
2018-05-02T00:46:06.435Z,278
2018-05-02T00:47:13.633Z,277
2018-05-02T00:48:21.015Z,278
2018-05-02T00:49:28.330Z,278
2018-05-02T00:50:35.536Z,278
2018-05-02T00:51:42.729Z,278
2018-05-02T00:52:49.931Z,278
2018-05-02T00:53:57.126Z,279
2018-05-02T00:55:04.326Z,278
2018-05-02T00:56:11.527Z,278
2018-05-02T00:57:18.725Z,278
2018-05-02T00:58:25.920Z,278
2018-05-02T00:59:33.144Z,277
2018-05-02T01:00:40.250Z,277
2018-05-02T01:01:47.454Z,278
2018-05-02T01:02:54.653Z,278
2018-05-02T01:04:01.301Z,277
2018-05-02T01:05:08.498Z,277
2018-05-02T01:06:15.422Z,277
2018-05-02T01:07:22.629Z,277
2018-05-02T01:08:29.841Z,277
2018-05-02T01:09:37.141Z,278
2018-05-02T01:10:44.090Z,278
2018-05-02T01:11:51.484Z,278
2018-05-02T01:12:58.431Z,278
2018-05-02T01:14:05.641Z,278
2018-05-02T01:15:12.849Z,278
2018-05-02T01:16:20.075Z,278
2018-05-02T01:17:27.290Z,278
2018-05-02T01:18:34.217Z,279
2018-05-02T01:19:41.412Z,279
2018-05-02T01:20:48.684Z,279
2018-05-02T01:21:55.916Z,279
2018-05-02T01:23:03.117Z,279
2018-05-02T01:24:10.050Z,278
2018-05-02T01:25:17.465Z,279
2018-05-02T01:26:24.792Z,279
2018-05-02T01:27:31.995Z,279
2018-05-02T01:28:39.196Z,280
2018-05-02T01:29:46.394Z,280
2018-05-02T01:30:53.589Z,279
2018-05-02T01:32:00.788Z,279
2018-05-02T01:33:08.098Z,280
2018-05-02T01:34:14.885Z,280
2018-05-02T01:35:22.088Z,280
2018-05-02T01:36:29.303Z,280
2018-05-02T01:37:36.508Z,280
2018-05-02T01:38:43.432Z,280
2018-05-02T01:39:50.634Z,280
2018-05-02T01:40:57.835Z,280
2018-05-02T01:42:05.033Z,280
2018-05-02T01:43:12.367Z,280
2018-05-02T01:44:19.679Z,280
2018-05-02T01:45:27.051Z,280
2018-05-02T01:46:34.387Z,280
2018-05-02T01:47:41.315Z,280
2018-05-02T01:48:48.631Z,280
2018-05-02T01:49:55.856Z,280
2018-05-02T01:51:02.945Z,280
2018-05-02T01:52:10.271Z,280
2018-05-02T01:53:17.282Z,280
2018-05-02T01:54:24.221Z,280
2018-05-02T01:55:31.420Z,280
2018-05-02T01:56:38.638Z,280
2018-05-02T01:57:45.859Z,280
2018-05-02T01:58:53.059Z,280
2018-05-02T02:00:00.261Z,279
2018-05-02T02:01:07.455Z,280
2018-05-02T02:02:14.656Z,280
2018-05-02T02:03:21.844Z,281
2018-05-02T02:04:29.048Z,280
2018-05-02T02:05:36.242Z,280
2018-05-02T02:06:43.440Z,280
2018-05-02T02:07:50.634Z,281
2018-05-02T02:08:57.563Z,281
2018-05-02T02:10:04.484Z,280
2018-05-02T02:11:11.681Z,281
2018-05-02T02:12:18.886Z,280
2018-05-02T02:13:26.111Z,280
2018-05-02T02:14:33.299Z,280
2018-05-02T02:15:40.257Z,280
2018-05-02T02:16:47.459Z,280
2018-05-02T02:17:54.656Z,280
2018-05-02T02:19:01.854Z,280
2018-05-02T02:20:09.061Z,280
2018-05-02T02:21:16.264Z,279
2018-05-02T02:22:23.462Z,280
2018-05-02T02:23:30.663Z,279
2018-05-02T02:24:37.859Z,279
2018-05-02T02:25:45.060Z,278
2018-05-02T02:26:52.273Z,278
2018-05-02T02:27:59.474Z,278
2018-05-02T02:29:06.675Z,278
2018-05-02T02:30:13.874Z,278
2018-05-02T02:31:21.075Z,278
2018-05-02T02:32:28.275Z,277
2018-05-02T02:33:35.474Z,277
2018-05-02T02:34:42.671Z,277
2018-05-02T02:35:49.867Z,278
2018-05-02T02:36:57.065Z,278
2018-05-02T02:38:04.263Z,278
2018-05-02T02:39:11.183Z,277
2018-05-02T02:40:18.380Z,278
2018-05-02T02:41:25.582Z,279
2018-05-02T02:42:32.781Z,278
2018-05-02T02:43:39.978Z,279
2018-05-02T02:44:47.176Z,280
2018-05-02T02:45:54.381Z,279
2018-05-02T02:47:01.579Z,279
2018-05-02T02:48:08.505Z,281
2018-05-02T02:49:15.699Z,281
2018-05-02T02:50:22.911Z,281
2018-05-02T02:51:30.106Z,281
2018-05-02T02:52:37.307Z,282
2018-05-02T02:53:44.507Z,281
2018-05-02T02:54:51.697Z,283
2018-05-02T02:55:58.900Z,282
2018-05-02T02:57:06.099Z,282
2018-05-02T02:58:13.371Z,283
2018-05-02T02:59:20.576Z,283
2018-05-02T03:00:27.762Z,283
2018-05-02T03:01:34.959Z,283
2018-05-02T03:02:42.154Z,282
2018-05-02T03:03:49.369Z,282
2018-05-02T03:04:56.566Z,282
2018-05-02T03:06:03.494Z,282
2018-05-02T03:07:10.700Z,281
2018-05-02T03:08:17.889Z,281
2018-05-02T03:09:24.815Z,281
2018-05-02T03:10:31.739Z,280
2018-05-02T03:11:38.660Z,280
2018-05-02T03:12:45.873Z,280
2018-05-02T03:13:53.065Z,279
2018-05-02T03:15:00.272Z,279
2018-05-02T03:16:07.473Z,279
2018-05-02T03:17:14.675Z,278
2018-05-02T03:18:21.596Z,277
2018-05-02T03:19:28.796Z,278
2018-05-02T03:20:35.997Z,277
2018-05-02T03:21:42.927Z,276
2018-05-02T03:22:49.848Z,276
2018-05-02T03:23:56.772Z,276
2018-05-02T03:25:03.692Z,276
2018-05-02T03:26:10.887Z,275
2018-05-02T03:27:18.088Z,275
2018-05-02T03:28:25.284Z,275
2018-05-02T03:29:32.215Z,275
2018-05-02T03:30:39.415Z,275
2018-05-02T03:31:46.609Z,275
2018-05-02T03:32:53.808Z,275
2018-05-02T03:34:00.731Z,274
2018-05-02T03:35:07.924Z,274
2018-05-02T03:36:15.119Z,273
2018-05-02T03:37:22.323Z,274
2018-05-02T03:38:29.519Z,273
2018-05-02T03:39:36.721Z,273
2018-05-02T03:40:43.921Z,273
2018-05-02T03:41:51.124Z,272
2018-05-02T03:42:57.776Z,272
2018-05-02T03:44:04.996Z,272
2018-05-02T03:45:12.193Z,272
2018-05-02T03:46:19.389Z,271
2018-05-02T03:47:26.589Z,271
2018-05-02T03:48:33.516Z,271
2018-05-02T03:49:40.720Z,271
2018-05-02T03:50:47.646Z,270
2018-05-02T03:51:54.849Z,271
2018-05-02T03:53:02.223Z,270
2018-05-02T03:54:09.477Z,270
2018-05-02T03:55:16.681Z,269
2018-05-02T03:56:23.903Z,270
2018-05-02T03:57:31.148Z,270
2018-05-02T03:58:38.078Z,270
2018-05-02T03:59:45.491Z,270
2018-05-02T04:00:52.532Z,272
2018-05-02T04:01:59.728Z,274
2018-05-02T04:03:06.923Z,277
2018-05-02T04:04:14.125Z,279
2018-05-02T04:05:21.331Z,280
2018-05-02T04:06:28.522Z,280
2018-05-02T04:07:35.722Z,280
2018-05-02T04:08:42.916Z,279
2018-05-02T04:09:50.165Z,277
2018-05-02T04:10:57.387Z,275
2018-05-02T04:12:04.590Z,274
2018-05-02T04:13:11.786Z,272
2018-05-02T04:14:18.708Z,271
2018-05-02T04:15:25.905Z,271
2018-05-02T04:16:33.115Z,270
2018-05-02T04:17:40.359Z,270
2018-05-02T04:18:47.689Z,270
2018-05-02T04:19:54.991Z,270
2018-05-02T04:21:02.194Z,269
2018-05-02T04:22:09.122Z,269
2018-05-02T04:23:16.334Z,269
2018-05-02T04:24:23.528Z,268
2018-05-02T04:25:30.453Z,268
2018-05-02T04:26:37.649Z,268
2018-05-02T04:27:44.849Z,268
2018-05-02T04:28:52.048Z,268
2018-05-02T04:29:58.970Z,268
2018-05-02T04:31:06.169Z,267
2018-05-02T04:32:13.368Z,268
2018-05-02T04:33:20.571Z,268
2018-05-02T04:34:27.774Z,267
2018-05-02T04:35:34.973Z,268
2018-05-02T04:36:42.171Z,268
2018-05-02T04:37:49.374Z,267
2018-05-02T04:38:56.573Z,267
2018-05-02T04:40:03.773Z,268
2018-05-02T04:41:11.316Z,268
2018-05-02T04:42:18.684Z,268
2018-05-02T04:43:25.873Z,268
2018-05-02T04:44:33.074Z,268
2018-05-02T04:45:40.277Z,268
2018-05-02T04:46:47.478Z,268
2018-05-02T04:47:54.683Z,268
2018-05-02T04:49:01.877Z,268
2018-05-02T04:50:09.080Z,268
2018-05-02T04:51:16.286Z,268
2018-05-02T04:52:23.221Z,269
2018-05-02T04:53:30.422Z,268
2018-05-02T04:54:37.620Z,269
2018-05-02T04:55:44.547Z,268
2018-05-02T04:56:51.473Z,269
2018-05-02T04:57:58.388Z,269
2018-05-02T04:59:05.592Z,269
2018-05-02T05:00:12.518Z,269
2018-05-02T05:01:19.722Z,269
2018-05-02T05:02:26.919Z,269
2018-05-02T05:03:34.135Z,269
2018-05-02T05:04:41.360Z,269
2018-05-02T05:05:48.542Z,269
2018-05-02T05:06:55.742Z,269
2018-05-02T05:08:02.663Z,269
2018-05-02T05:09:09.323Z,269
2018-05-02T05:10:16.522Z,269
2018-05-02T05:11:23.763Z,269
2018-05-02T05:12:30.962Z,270
2018-05-02T05:13:38.160Z,269
2018-05-02T05:14:45.380Z,269
2018-05-02T05:15:52.578Z,269
2018-05-02T05:16:59.775Z,269
2018-05-02T05:18:06.983Z,269
2018-05-02T05:19:13.898Z,269
2018-05-02T05:20:20.824Z,269
2018-05-02T05:21:28.021Z,269
2018-05-02T05:22:35.227Z,269
2018-05-02T05:23:42.426Z,269
2018-05-02T05:24:49.694Z,269
2018-05-02T05:25:56.892Z,269
2018-05-02T05:27:04.091Z,269
2018-05-02T05:28:11.460Z,270
2018-05-02T05:29:18.701Z,270
2018-05-02T05:30:25.896Z,270
2018-05-02T05:31:33.097Z,270
2018-05-02T05:32:40.304Z,270
2018-05-02T05:33:47.525Z,270
2018-05-02T05:34:54.446Z,270
2018-05-02T05:36:01.646Z,269
2018-05-02T05:37:08.847Z,269
2018-05-02T05:38:16.268Z,269
2018-05-02T05:39:23.474Z,269
2018-05-02T05:40:30.676Z,269
2018-05-02T05:41:37.879Z,270
2018-05-02T05:42:45.080Z,270
2018-05-02T05:43:52.053Z,270
2018-05-02T05:44:58.977Z,271
2018-05-02T05:46:06.178Z,271
2018-05-02T05:47:13.603Z,271
2018-05-02T05:48:20.791Z,270
2018-05-02T05:49:28.000Z,270
2018-05-02T05:50:35.203Z,270
2018-05-02T05:51:42.404Z,271
2018-05-02T05:52:49.608Z,271
2018-05-02T05:53:57.011Z,271
2018-05-02T05:55:04.300Z,271
2018-05-02T05:56:11.496Z,271
2018-05-02T05:57:18.699Z,271
2018-05-02T05:58:25.895Z,271
2018-05-02T05:59:33.100Z,271
2018-05-02T06:00:40.304Z,271
2018-05-02T06:01:47.577Z,271
2018-05-02T06:02:54.780Z,271
2018-05-02T06:04:01.985Z,272
2018-05-02T06:05:09.337Z,271
2018-05-02T06:06:16.533Z,271
2018-05-02T06:07:23.735Z,271
2018-05-02T06:08:30.937Z,271
2018-05-02T06:09:38.140Z,271
2018-05-02T06:10:45.346Z,271
2018-05-02T06:11:52.544Z,271
2018-05-02T06:12:59.743Z,272
2018-05-02T06:14:06.946Z,272
2018-05-02T06:15:14.141Z,272
2018-05-02T06:16:21.074Z,273
2018-05-02T06:17:28.301Z,273
2018-05-02T06:18:35.503Z,273
2018-05-02T06:19:42.155Z,273
2018-05-02T06:20:49.430Z,273
2018-05-02T06:21:56.366Z,273
2018-05-02T06:23:03.275Z,273
2018-05-02T06:24:10.483Z,273
2018-05-02T06:25:17.684Z,272
2018-05-02T06:26:24.880Z,273
2018-05-02T06:27:32.085Z,272
2018-05-02T06:28:39.287Z,272
2018-05-02T06:29:46.487Z,273
2018-05-02T06:30:53.686Z,272
2018-05-02T06:32:01.291Z,272
2018-05-02T06:33:08.637Z,272
2018-05-02T06:34:15.841Z,272
2018-05-02T06:35:23.040Z,272
2018-05-02T06:36:30.243Z,272
2018-05-02T06:37:37.675Z,272
2018-05-02T06:38:45.016Z,273
2018-05-02T06:39:51.945Z,273
2018-05-02T06:40:59.143Z,273
2018-05-02T06:42:06.344Z,275
2018-05-02T06:43:13.546Z,275
2018-05-02T06:44:20.480Z,275
2018-05-02T06:45:27.410Z,276
2018-05-02T06:46:34.345Z,275
2018-05-02T06:47:41.276Z,276
2018-05-02T06:48:48.473Z,276
2018-05-02T06:49:55.672Z,276
2018-05-02T06:51:02.877Z,277
2018-05-02T06:52:10.078Z,277
2018-05-02T06:53:17.280Z,278
2018-05-02T06:54:24.480Z,278
2018-05-02T06:55:31.415Z,278
2018-05-02T06:56:38.612Z,278
2018-05-02T06:57:45.811Z,277
2018-05-02T06:58:52.738Z,276
2018-05-02T06:59:59.939Z,276
2018-05-02T07:01:07.139Z,276
2018-05-02T07:02:14.341Z,275
2018-05-02T07:03:21.547Z,275
2018-05-02T07:04:28.478Z,274
2018-05-02T07:05:35.680Z,273
2018-05-02T07:06:42.882Z,273
2018-05-02T07:07:49.813Z,274
2018-05-02T07:08:57.015Z,274
2018-05-02T07:10:04.220Z,274
2018-05-02T07:11:11.426Z,274
2018-05-02T07:12:18.352Z,273
2018-05-02T07:13:25.346Z,273
2018-05-02T07:14:32.276Z,272
2018-05-02T07:15:39.472Z,272
2018-05-02T07:16:46.674Z,272
2018-05-02T07:17:53.875Z,271
2018-05-02T07:19:01.091Z,270
2018-05-02T07:20:08.295Z,272
2018-05-02T07:21:15.501Z,272
2018-05-02T07:22:22.704Z,273
2018-05-02T07:23:29.639Z,273
2018-05-02T07:24:36.846Z,273
2018-05-02T07:25:44.041Z,273
2018-05-02T07:26:51.247Z,273
2018-05-02T07:27:58.150Z,273
2018-05-02T07:29:05.371Z,273
2018-05-02T07:30:12.566Z,273
2018-05-02T07:31:19.766Z,273
2018-05-02T07:32:27.041Z,275
2018-05-02T07:33:34.247Z,275
2018-05-02T07:34:41.173Z,275
2018-05-02T07:35:48.384Z,275
2018-05-02T07:36:55.317Z,275
2018-05-02T07:38:02.529Z,276
2018-05-02T07:39:09.727Z,275
2018-05-02T07:40:16.935Z,276
2018-05-02T07:41:24.129Z,278
2018-05-02T07:42:31.331Z,278
2018-05-02T07:43:38.591Z,277
2018-05-02T07:44:45.795Z,276
2018-05-02T07:45:52.998Z,276
2018-05-02T07:47:00.199Z,276
2018-05-02T07:48:07.408Z,276
2018-05-02T07:49:14.609Z,278
2018-05-02T07:50:21.813Z,276
2018-05-02T07:51:29.013Z,275
2018-05-02T07:52:36.095Z,274
2018-05-02T07:53:43.350Z,274
2018-05-02T07:54:50.554Z,276
2018-05-02T07:55:57.798Z,278
2018-05-02T07:57:05.127Z,279
2018-05-02T07:58:12.060Z,278
2018-05-02T07:59:19.264Z,277
2018-05-02T08:00:25.933Z,275
2018-05-02T08:01:33.132Z,276
2018-05-02T08:02:40.344Z,277
2018-05-02T08:03:47.549Z,276
2018-05-02T08:04:54.758Z,275
2018-05-02T08:06:01.955Z,277
2018-05-02T08:07:09.154Z,275
2018-05-02T08:08:16.359Z,275
2018-05-02T08:09:23.560Z,276
2018-05-02T08:10:30.503Z,276
2018-05-02T08:11:37.721Z,275
2018-05-02T08:12:44.925Z,275
2018-05-02T08:13:52.138Z,276
2018-05-02T08:14:59.340Z,275
2018-05-02T08:16:06.545Z,274
2018-05-02T08:17:13.750Z,276
2018-05-02T08:18:20.960Z,275
2018-05-02T08:19:28.158Z,275
2018-05-02T08:20:35.364Z,275
2018-05-02T08:21:42.566Z,277
2018-05-02T08:22:49.782Z,278
2018-05-02T08:23:56.989Z,279
2018-05-02T08:25:04.196Z,278
2018-05-02T08:26:11.122Z,277
2018-05-02T08:27:18.355Z,278
2018-05-02T08:28:25.551Z,278
2018-05-02T08:29:32.762Z,278
2018-05-02T08:30:39.985Z,277
2018-05-02T08:31:47.191Z,278
2018-05-02T08:32:54.504Z,275
2018-05-02T08:34:01.753Z,274
2018-05-02T08:35:08.953Z,273
2018-05-02T08:36:15.877Z,274
2018-05-02T08:37:22.562Z,275
2018-05-02T08:38:29.764Z,275
2018-05-02T08:39:36.692Z,276
2018-05-02T08:40:43.910Z,276
2018-05-02T08:41:51.141Z,277
2018-05-02T08:42:58.075Z,277
2018-05-02T08:44:05.284Z,277
2018-05-02T08:45:12.256Z,277
2018-05-02T08:46:19.185Z,277
2018-05-02T08:47:26.398Z,276
2018-05-02T08:48:33.327Z,274
2018-05-02T08:49:39.994Z,275
2018-05-02T08:50:47.199Z,275
2018-05-02T08:51:54.134Z,277
2018-05-02T08:53:01.067Z,279
2018-05-02T08:54:07.994Z,278
2018-05-02T08:55:15.198Z,277
2018-05-02T08:56:22.129Z,277
2018-05-02T08:57:29.146Z,276
2018-05-02T08:58:36.499Z,274
2018-05-02T08:59:43.723Z,273
2018-05-02T09:00:50.929Z,273
2018-05-02T09:01:57.866Z,277
2018-05-02T09:03:05.085Z,276
2018-05-02T09:04:12.287Z,276
2018-05-02T09:05:19.219Z,276
2018-05-02T09:06:26.430Z,277
2018-05-02T09:07:33.657Z,279
2018-05-02T09:08:40.593Z,278
2018-05-02T09:09:47.802Z,277
2018-05-02T09:10:55.014Z,275
2018-05-02T09:12:02.221Z,274
2018-05-02T09:13:09.429Z,275
2018-05-02T09:14:16.915Z,274
2018-05-02T09:15:24.120Z,274
2018-05-02T09:16:31.044Z,273
2018-05-02T09:17:37.975Z,277
2018-05-02T09:18:44.910Z,277
2018-05-02T09:19:52.116Z,275
2018-05-02T09:20:59.320Z,273
2018-05-02T09:22:06.531Z,271
2018-05-02T09:23:13.739Z,270
2018-05-02T09:24:20.946Z,272
2018-05-02T09:25:28.156Z,272
2018-05-02T09:26:35.365Z,272
2018-05-02T09:27:42.569Z,271
2018-05-02T09:28:49.499Z,276
2018-05-02T09:29:56.708Z,278
2018-05-02T09:31:03.930Z,276
2018-05-02T09:32:10.859Z,275
2018-05-02T09:33:18.067Z,276
2018-05-02T09:34:25.274Z,275
2018-05-02T09:35:32.586Z,276
2018-05-02T09:36:39.800Z,275
2018-05-02T09:37:47.014Z,273
2018-05-02T09:38:54.228Z,275
2018-05-02T09:40:01.450Z,274
2018-05-02T09:41:08.685Z,272
2018-05-02T09:42:15.883Z,273
2018-05-02T09:43:23.091Z,272
2018-05-02T09:44:30.030Z,273
2018-05-02T09:45:37.238Z,274
2018-05-02T09:46:44.452Z,274
2018-05-02T09:47:51.681Z,275
2018-05-02T09:48:58.362Z,274
2018-05-02T09:50:05.611Z,274
2018-05-02T09:51:12.834Z,276
2018-05-02T09:52:20.040Z,276
2018-05-02T09:53:27.251Z,275
2018-05-02T09:54:34.454Z,274
2018-05-02T09:55:41.663Z,273
2018-05-02T09:56:48.599Z,275
2018-05-02T09:57:55.814Z,274
2018-05-02T09:59:03.051Z,272
2018-05-02T10:00:10.243Z,272
2018-05-02T10:01:17.454Z,276
2018-05-02T10:02:24.660Z,281
2018-05-02T10:03:31.876Z,283
2018-05-02T10:04:39.102Z,282
2018-05-02T10:05:46.321Z,280
2018-05-02T10:06:53.528Z,282
2018-05-02T10:08:00.736Z,281
2018-05-02T10:09:07.672Z,282
2018-05-02T10:10:14.884Z,281
2018-05-02T10:11:22.098Z,282
2018-05-02T10:12:29.429Z,284
2018-05-02T10:13:36.723Z,280
2018-05-02T10:14:43.933Z,279
2018-05-02T10:15:50.861Z,277
2018-05-02T10:16:58.069Z,281
2018-05-02T10:18:05.278Z,280
2018-05-02T10:19:12.487Z,278
2018-05-02T10:20:19.417Z,275
2018-05-02T10:21:26.621Z,277
2018-05-02T10:22:33.828Z,276
2018-05-02T10:23:40.761Z,274
2018-05-02T10:24:47.968Z,275
2018-05-02T10:25:54.946Z,274
2018-05-02T10:27:01.607Z,274
2018-05-02T10:28:08.816Z,273
2018-05-02T10:29:15.813Z,274
2018-05-02T10:30:23.028Z,282
2018-05-02T10:31:30.239Z,278
2018-05-02T10:32:37.446Z,275
2018-05-02T10:33:44.662Z,274
2018-05-02T10:34:51.874Z,277
2018-05-02T10:35:59.077Z,279
2018-05-02T10:37:06.308Z,279
2018-05-02T10:38:12.975Z,277
2018-05-02T10:39:20.183Z,274
2018-05-02T10:40:27.392Z,280
2018-05-02T10:41:34.327Z,282
2018-05-02T10:42:41.265Z,282
2018-05-02T10:43:48.472Z,282
2018-05-02T10:44:55.686Z,280
2018-05-02T10:46:02.625Z,278
2018-05-02T10:47:09.833Z,280
2018-05-02T10:48:17.046Z,278
2018-05-02T10:49:24.255Z,277
2018-05-02T10:50:31.465Z,276
2018-05-02T10:51:38.089Z,275
2018-05-02T10:52:45.297Z,275
2018-05-02T10:53:52.508Z,277
2018-05-02T10:54:59.715Z,276
2018-05-02T10:56:06.953Z,277
2018-05-02T10:57:14.160Z,276
2018-05-02T10:58:21.374Z,280
2018-05-02T10:59:28.580Z,280
2018-05-02T11:00:35.518Z,285
2018-05-02T11:01:42.731Z,284
2018-05-02T11:02:49.667Z,280
2018-05-02T11:03:56.878Z,276
2018-05-02T11:05:04.104Z,274
2018-05-02T11:06:11.315Z,275
2018-05-02T11:07:18.520Z,273
2018-05-02T11:08:25.923Z,277
2018-05-02T11:09:33.239Z,280
2018-05-02T11:10:40.465Z,286
2018-05-02T11:11:47.662Z,283
2018-05-02T11:12:54.873Z,282
2018-05-02T11:14:02.083Z,280
2018-05-02T11:15:09.060Z,276
2018-05-02T11:16:16.268Z,278
2018-05-02T11:17:23.477Z,282
2018-05-02T11:18:30.684Z,281
2018-05-02T11:19:37.893Z,280
2018-05-02T11:20:45.108Z,279
2018-05-02T11:21:52.391Z,279
2018-05-02T11:22:59.608Z,279
2018-05-02T11:24:06.817Z,279
2018-05-02T11:25:14.026Z,278
2018-05-02T11:26:20.962Z,280
2018-05-02T11:27:28.176Z,282
2018-05-02T11:28:35.117Z,280
2018-05-02T11:29:42.328Z,279
2018-05-02T11:30:49.538Z,278
2018-05-02T11:31:56.748Z,277
2018-05-02T11:33:03.955Z,278
2018-05-02T11:34:11.167Z,280
2018-05-02T11:35:18.400Z,282
2018-05-02T11:36:25.619Z,283
2018-05-02T11:37:32.570Z,283
2018-05-02T11:38:39.771Z,282
2018-05-02T11:39:46.988Z,281
2018-05-02T11:40:54.248Z,279
2018-05-02T11:42:01.464Z,284
2018-05-02T11:43:08.679Z,283
2018-05-02T11:44:15.933Z,283
2018-05-02T11:45:23.151Z,280
2018-05-02T11:46:29.813Z,284
2018-05-02T11:47:37.030Z,284
2018-05-02T11:48:44.237Z,283
2018-05-02T11:49:50.892Z,282
2018-05-02T11:50:58.101Z,281
2018-05-02T11:52:05.045Z,277
2018-05-02T11:53:12.255Z,280
2018-05-02T11:54:19.460Z,278
2018-05-02T11:55:26.697Z,270
2018-05-02T11:56:33.905Z,272
2018-05-02T11:57:41.145Z,271
2018-05-02T11:58:48.357Z,272
2018-05-02T11:59:55.572Z,272
2018-05-02T12:01:02.524Z,269
2018-05-02T12:02:09.743Z,270
2018-05-02T12:03:16.965Z,272
2018-05-02T12:04:24.181Z,272
2018-05-02T12:05:31.397Z,275
2018-05-02T12:06:38.607Z,273
2018-05-02T12:07:45.548Z,272
2018-05-02T12:08:52.904Z,268
2018-05-02T12:10:00.109Z,266
2018-05-02T12:11:07.319Z,267
2018-05-02T12:12:14.543Z,268
2018-05-02T12:13:21.482Z,263
2018-05-02T12:14:28.702Z,265
2018-05-02T12:15:35.923Z,268
2018-05-02T12:16:43.154Z,273
2018-05-02T12:17:50.364Z,278
2018-05-02T12:18:57.580Z,277
2018-05-02T12:20:04.800Z,271
2018-05-02T12:21:12.030Z,271
2018-05-02T12:22:18.968Z,271
2018-05-02T12:23:26.180Z,270
2018-05-02T12:24:33.125Z,265
2018-05-02T12:25:40.338Z,261
2018-05-02T12:26:47.594Z,262
2018-05-02T12:27:54.970Z,260
2018-05-02T12:29:02.177Z,256
2018-05-02T12:30:09.393Z,259
2018-05-02T12:31:16.604Z,259
2018-05-02T12:32:23.808Z,261
2018-05-02T12:33:31.018Z,260
2018-05-02T12:34:38.229Z,265
2018-05-02T12:35:45.442Z,267
2018-05-02T12:36:52.716Z,266
2018-05-02T12:37:59.928Z,268
2018-05-02T12:39:07.139Z,269
2018-05-02T12:40:14.352Z,278
2018-05-02T12:41:21.584Z,278
2018-05-02T12:42:28.801Z,276
2018-05-02T12:43:36.016Z,271
2018-05-02T12:44:43.227Z,275
2018-05-02T12:45:50.162Z,271
2018-05-02T12:46:57.378Z,268
2018-05-02T12:48:04.320Z,260
2018-05-02T12:49:11.540Z,262
2018-05-02T12:50:18.754Z,256
2018-05-02T12:51:25.965Z,252
2018-05-02T12:52:32.900Z,249
2018-05-02T12:53:40.112Z,257
2018-05-02T12:54:47.055Z,255
2018-05-02T12:55:54.277Z,255
2018-05-02T12:57:01.529Z,259
2018-05-02T12:58:08.753Z,255
2018-05-02T12:59:15.965Z,257
2018-05-02T13:00:23.178Z,258
2018-05-02T13:01:30.405Z,259
2018-05-02T13:02:37.897Z,256
2018-05-02T13:03:44.820Z,265
2018-05-02T13:04:51.765Z,263
2018-05-02T13:05:58.976Z,261
2018-05-02T13:07:06.198Z,261
2018-05-02T13:08:13.378Z,261
2018-05-02T13:09:20.670Z,259
2018-05-02T13:10:27.885Z,253
2018-05-02T13:11:35.099Z,263
2018-05-02T13:12:42.313Z,261
2018-05-02T13:13:49.523Z,260
2018-05-02T13:14:56.739Z,267
2018-05-02T13:16:03.950Z,266
2018-05-02T13:17:11.163Z,276
2018-05-02T13:18:18.116Z,278
2018-05-02T13:19:25.329Z,277
2018-05-02T13:20:32.542Z,280
2018-05-02T13:21:39.766Z,276
2018-05-02T13:22:46.707Z,277
2018-05-02T13:23:53.919Z,281
2018-05-02T13:25:01.132Z,280
2018-05-02T13:26:08.346Z,278
2018-05-02T13:27:15.557Z,283
2018-05-02T13:28:22.787Z,286
2018-05-02T13:29:30.006Z,284
2018-05-02T13:30:37.215Z,287
2018-05-02T13:31:44.429Z,284
2018-05-02T13:32:51.369Z,283
2018-05-02T13:33:58.584Z,281
2018-05-02T13:35:05.523Z,279
2018-05-02T13:36:12.734Z,285
2018-05-02T13:37:19.951Z,286
2018-05-02T13:38:27.161Z,279
2018-05-02T13:39:34.373Z,278
2018-05-02T13:40:41.593Z,284
2018-05-02T13:41:48.805Z,286
2018-05-02T13:42:56.014Z,287
2018-05-02T13:44:02.946Z,288
2018-05-02T13:45:10.157Z,290
2018-05-02T13:46:17.398Z,292
2018-05-02T13:47:24.612Z,293
2018-05-02T13:48:31.822Z,293
2018-05-02T13:49:39.040Z,292
2018-05-02T13:50:46.251Z,291
2018-05-02T13:51:53.460Z,289
2018-05-02T13:53:00.671Z,285
2018-05-02T13:54:07.072Z,284
2018-05-02T13:55:14.283Z,284
2018-05-02T13:56:21.498Z,284
2018-05-02T13:57:28.710Z,290
2018-05-02T13:58:35.928Z,291
2018-05-02T13:59:43.140Z,294
2018-05-02T14:00:50.215Z,293
2018-05-02T14:01:57.450Z,296
2018-05-02T14:03:04.662Z,296
2018-05-02T14:04:11.885Z,297
2018-05-02T14:05:19.105Z,296
2018-05-02T14:06:26.319Z,295
2018-05-02T14:07:33.527Z,296
2018-05-02T14:08:40.734Z,293
2018-05-02T14:09:47.945Z,292
2018-05-02T14:10:55.157Z,294
2018-05-02T14:12:02.364Z,294
2018-05-02T14:13:09.578Z,294
2018-05-02T14:14:16.795Z,296
2018-05-02T14:15:24.015Z,295
2018-05-02T14:16:31.230Z,293
2018-05-02T14:17:38.442Z,293
2018-05-02T14:18:45.660Z,295
2018-05-02T14:19:52.869Z,296
2018-05-02T14:21:00.106Z,294
2018-05-02T14:22:07.316Z,292
2018-05-02T14:23:14.535Z,297
2018-05-02T14:24:21.473Z,296
2018-05-02T14:25:28.429Z,296
2018-05-02T14:26:35.645Z,297
2018-05-02T14:27:42.863Z,296
2018-05-02T14:28:49.804Z,295
2018-05-02T14:29:56.735Z,295
2018-05-02T14:31:03.959Z,296
2018-05-02T14:32:11.180Z,295
2018-05-02T14:33:18.124Z,295
2018-05-02T14:34:25.334Z,294
2018-05-02T14:35:32.558Z,294
2018-05-02T14:36:39.503Z,294
2018-05-02T14:37:46.710Z,294
2018-05-02T14:38:53.922Z,293
2018-05-02T14:40:00.856Z,293
2018-05-02T14:41:08.067Z,294
2018-05-02T14:42:15.005Z,293
2018-05-02T14:43:22.211Z,293
2018-05-02T14:44:29.154Z,293
2018-05-02T14:45:36.364Z,292
2018-05-02T14:46:43.302Z,293
2018-05-02T14:47:50.517Z,294
2018-05-02T14:48:57.787Z,295
2018-05-02T14:50:04.998Z,295
2018-05-02T14:51:12.210Z,295
2018-05-02T14:52:19.420Z,295
2018-05-02T14:53:26.635Z,294
2018-05-02T14:54:33.814Z,294
2018-05-02T14:55:41.061Z,294
2018-05-02T14:56:48.274Z,294
2018-05-02T14:57:55.207Z,293
2018-05-02T14:59:02.428Z,293
2018-05-02T15:00:09.639Z,292
2018-05-02T15:01:16.922Z,292
2018-05-02T15:02:24.168Z,291
2018-05-02T15:03:31.422Z,293
2018-05-02T15:04:38.633Z,293
2018-05-02T15:05:45.849Z,293
2018-05-02T15:06:52.785Z,293
2018-05-02T15:07:59.996Z,293
2018-05-02T15:09:07.206Z,294
2018-05-02T15:10:14.418Z,294
2018-05-02T15:11:21.655Z,294
2018-05-02T15:12:28.866Z,294
2018-05-02T15:13:36.077Z,293
2018-05-02T15:14:43.291Z,293
2018-05-02T15:15:50.498Z,292
2018-05-02T15:16:57.712Z,293
2018-05-02T15:18:04.920Z,292
2018-05-02T15:19:12.137Z,292
2018-05-02T15:20:19.347Z,292
2018-05-02T15:21:26.814Z,291
2018-05-02T15:22:34.010Z,292
2018-05-02T15:23:41.224Z,292
2018-05-02T15:24:48.704Z,292
2018-05-02T15:25:55.626Z,291